createdAt,value
2018-03-26T00:00:21.338Z,25.90
2018-03-26T00:02:49.686Z,26.92
2018-03-26T00:05:18.030Z,27.85
2018-03-26T00:07:46.381Z,27.17
2018-03-26T00:10:14.710Z,26.62
2018-03-26T00:12:43.064Z,27.35
2018-03-26T00:15:11.394Z,27.40
2018-03-26T00:17:39.746Z,28.30
2018-03-26T00:20:08.077Z,26.45
2018-03-26T00:22:36.429Z,27.87
2018-03-26T00:25:04.764Z,27.02
2018-03-26T00:27:33.127Z,24.87
2018-03-26T00:30:01.454Z,26.12
2018-03-26T00:32:29.807Z,25.80
2018-03-26T00:34:58.147Z,27.00
2018-03-26T00:37:26.502Z,25.67
2018-03-26T00:39:54.830Z,28.40
2018-03-26T00:42:23.173Z,27.52
2018-03-26T00:44:51.498Z,28.00
2018-03-26T00:47:19.846Z,31.67
2018-03-26T00:49:48.171Z,31.12
2018-03-26T00:52:16.518Z,32.05
2018-03-26T00:54:44.830Z,31.25
2018-03-26T00:57:13.186Z,31.98
2018-03-26T00:59:41.510Z,32.33
2018-03-26T01:02:09.861Z,31.85
2018-03-26T01:04:38.187Z,32.00
2018-03-26T01:07:06.531Z,33.60
2018-03-26T01:09:34.850Z,33.15
2018-03-26T01:12:02.480Z,32.65
2018-03-26T01:14:30.574Z,32.30
2018-03-26T01:16:58.913Z,32.08
2018-03-26T01:19:27.243Z,33.72
2018-03-26T01:21:55.590Z,33.97
2018-03-26T01:24:23.918Z,33.40
2018-03-26T01:26:52.267Z,40.28
2018-03-26T01:29:20.598Z,39.05
2018-03-26T01:31:48.922Z,40.08
2018-03-26T01:34:17.260Z,39.40
2018-03-26T01:36:45.587Z,38.53
2018-03-26T01:39:13.926Z,40.95
2018-03-26T01:41:42.242Z,39.47
2018-03-26T01:44:10.591Z,41.35
2018-03-26T01:46:38.913Z,40.10
2018-03-26T01:49:07.258Z,38.40
2018-03-26T01:51:35.586Z,38.60
2018-03-26T01:54:03.932Z,39.55
2018-03-26T01:56:32.463Z,37.20
2018-03-26T01:59:00.622Z,38.22
2018-03-26T02:01:28.927Z,36.80
2018-03-26T02:03:57.271Z,39.38
2018-03-26T02:06:25.594Z,39.10
2018-03-26T02:08:53.933Z,37.25
2018-03-26T02:11:22.253Z,39.50
2018-03-26T02:13:50.609Z,39.90
2018-03-26T02:16:18.931Z,40.33
2018-03-26T02:18:47.270Z,38.63
2018-03-26T02:21:15.607Z,41.30
2018-03-26T02:23:43.946Z,40.58
2018-03-26T02:26:12.274Z,41.37
2018-03-26T02:28:40.623Z,43.70
2018-03-26T02:31:09.271Z,41.95
2018-03-26T02:33:37.598Z,45.05
2018-03-26T02:36:05.928Z,44.80
2018-03-26T02:38:34.271Z,44.40
2018-03-26T02:41:02.588Z,46.17
2018-03-26T02:43:30.931Z,44.63
2018-03-26T02:45:59.255Z,47.00
2018-03-26T02:48:27.599Z,44.30
2018-03-26T02:50:55.919Z,44.13
2018-03-26T02:53:24.258Z,46.65
2018-03-26T02:55:52.586Z,45.03
2018-03-26T02:58:20.922Z,44.55
2018-03-26T03:00:49.247Z,47.40
2018-03-26T03:03:20.513Z,46.90
2018-03-26T03:05:48.831Z,47.28
2018-03-26T03:08:17.176Z,45.58
2018-03-26T03:10:45.501Z,48.50
2018-03-26T03:13:13.842Z,43.40
2018-03-26T03:15:42.164Z,48.58
2018-03-26T03:18:10.513Z,45.80
2018-03-26T03:20:38.841Z,44.28
2018-03-26T03:23:07.178Z,42.33
2018-03-26T03:25:35.494Z,45.60
2018-03-26T03:28:03.843Z,45.78
2018-03-26T03:30:32.167Z,44.17
2018-03-26T03:33:00.528Z,45.45
2018-03-26T03:35:28.849Z,44.10
2018-03-26T03:37:57.173Z,44.65
2018-03-26T03:40:25.514Z,45.50
2018-03-26T03:42:53.844Z,46.08
2018-03-26T03:45:22.202Z,45.75
2018-03-26T03:47:50.522Z,43.28
2018-03-26T03:50:18.862Z,43.63
2018-03-26T03:52:47.190Z,40.67
2018-03-26T03:55:15.526Z,40.83
2018-03-26T03:57:43.846Z,42.62
2018-03-26T04:00:12.209Z,42.38
2018-03-26T04:02:40.513Z,39.88
2018-03-26T04:05:08.861Z,43.75
2018-03-26T04:07:37.183Z,44.53
2018-03-26T04:10:05.522Z,42.60
2018-03-26T04:12:33.834Z,43.05
2018-03-26T04:15:02.183Z,42.90
2018-03-26T04:17:30.506Z,44.13
2018-03-26T04:19:58.854Z,44.28
2018-03-26T04:22:27.173Z,41.40
2018-03-26T04:24:55.513Z,43.92
2018-03-26T04:27:23.835Z,43.35
2018-03-26T04:29:52.178Z,44.85
2018-03-26T04:32:20.498Z,44.50
2018-03-26T04:34:48.842Z,44.83
2018-03-26T04:37:17.249Z,43.50
2018-03-26T04:39:45.582Z,44.40
2018-03-26T04:42:13.908Z,45.10
2018-03-26T04:44:42.257Z,46.87
2018-03-26T04:47:10.586Z,45.42
2018-03-26T04:49:38.930Z,50.17
2018-03-26T04:52:07.258Z,51.40
2018-03-26T04:54:35.606Z,50.50
2018-03-26T04:57:03.938Z,49.00
2018-03-26T04:59:32.873Z,49.30
2018-03-26T05:02:01.201Z,49.53
2018-03-26T05:04:29.550Z,49.07
2018-03-26T05:06:58.826Z,47.90
2018-03-26T05:09:27.182Z,47.60
2018-03-26T05:11:55.505Z,44.65
2018-03-26T05:14:23.927Z,47.88
2018-03-26T05:16:52.190Z,46.43
2018-03-26T05:19:20.543Z,45.88
2018-03-26T05:21:48.877Z,46.60
2018-03-26T05:24:17.231Z,49.80
2018-03-26T05:26:45.554Z,51.60
2018-03-26T05:29:13.918Z,49.70
2018-03-26T05:31:42.247Z,50.22
2018-03-26T05:34:10.599Z,45.57
2018-03-26T05:36:38.931Z,49.45
2018-03-26T05:39:07.253Z,49.90
2018-03-26T05:41:35.602Z,52.40
2018-03-26T05:44:03.932Z,51.70
2018-03-26T05:46:32.292Z,51.13
2018-03-26T05:49:00.619Z,48.47
2018-03-26T05:51:28.967Z,48.10
2018-03-26T05:53:57.293Z,48.90
2018-03-26T05:56:25.749Z,48.07
2018-03-26T05:58:54.058Z,49.50
2018-03-26T06:01:26.888Z,48.97
2018-03-26T06:03:55.746Z,51.60
2018-03-26T06:06:24.090Z,49.33
2018-03-26T06:08:52.417Z,48.70
2018-03-26T06:11:20.774Z,48.07
2018-03-26T06:13:49.123Z,49.50
2018-03-26T06:16:17.450Z,50.67
2018-03-26T06:18:46.138Z,46.58
2018-03-26T06:21:14.486Z,48.53
2018-03-26T06:23:42.814Z,50.17
2018-03-26T06:26:12.057Z,49.93
2018-03-26T06:28:40.390Z,47.60
2018-03-26T06:31:08.737Z,47.10
2018-03-26T06:33:37.074Z,47.83
2018-03-26T06:39:33.925Z,47.38
2018-03-26T06:42:02.338Z,48.23
2018-03-26T06:44:30.661Z,49.70
2018-03-26T06:46:59.015Z,45.20
2018-03-26T06:49:27.346Z,47.55
2018-03-26T06:51:55.688Z,46.17
2018-03-26T06:54:24.022Z,44.40
2018-03-26T06:56:52.374Z,46.37
2018-03-26T06:59:20.697Z,42.10
2018-03-26T07:01:49.049Z,43.08
2018-03-26T07:04:17.375Z,45.70
2018-03-26T07:06:46.400Z,48.75
2018-03-26T07:09:14.690Z,46.90
2018-03-26T07:11:43.043Z,49.70
2018-03-26T07:14:11.376Z,46.13
2018-03-26T07:16:39.738Z,48.70
2018-03-26T07:19:08.061Z,46.57
2018-03-26T07:21:36.432Z,46.47
2018-03-26T07:24:04.750Z,46.13
2018-03-26T07:26:34.102Z,45.53
2018-03-26T07:29:02.435Z,43.57
2018-03-26T07:31:30.790Z,45.70
2018-03-26T07:33:59.190Z,44.03
2018-03-26T07:36:27.534Z,42.57
2018-03-26T07:38:55.910Z,44.70
2018-03-26T07:41:24.622Z,46.67
2018-03-26T07:43:53.010Z,44.00
2018-03-26T07:46:22.626Z,46.22
2018-03-26T07:48:50.979Z,45.70
2018-03-26T07:51:19.401Z,48.90
2018-03-26T07:53:47.754Z,46.25
2018-03-26T07:56:16.114Z,42.47
2018-03-26T07:58:44.443Z,41.67
2018-03-26T08:01:12.789Z,43.67
2018-03-26T08:03:41.122Z,41.30
2018-03-26T08:06:09.563Z,42.50
2018-03-26T08:08:37.901Z,44.42
2018-03-26T08:11:06.376Z,41.50
2018-03-26T08:13:34.694Z,43.67
2018-03-26T08:16:03.048Z,45.20
2018-03-26T08:18:31.383Z,45.53
2018-03-26T08:20:59.730Z,42.97
2018-03-26T08:23:28.070Z,41.37
2018-03-26T08:25:56.898Z,41.53
2018-03-26T08:28:25.227Z,38.53
2018-03-26T08:30:53.578Z,38.50
2018-03-26T08:33:21.917Z,37.03
2018-03-26T08:35:50.290Z,37.53
2018-03-26T08:38:18.626Z,30.60
2018-03-26T08:40:46.949Z,35.38
2018-03-26T08:43:15.290Z,36.08
2018-03-26T08:45:43.611Z,38.90
2018-03-26T08:48:11.966Z,39.75
2018-03-26T08:50:40.287Z,32.88
2018-03-26T08:53:08.627Z,33.22
2018-03-26T08:55:37.174Z,32.85
2018-03-26T08:58:05.506Z,31.15
2018-03-26T09:00:33.833Z,33.35
2018-03-26T09:03:02.178Z,33.72
2018-03-26T09:05:30.502Z,29.77
2018-03-26T09:07:58.838Z,29.40
2018-03-26T09:10:27.168Z,38.67
2018-03-26T09:12:55.506Z,40.42
2018-03-26T09:15:23.835Z,39.40
2018-03-26T09:17:52.180Z,43.28
2018-03-26T09:20:20.509Z,40.38
2018-03-26T09:22:48.849Z,35.28
2018-03-26T09:25:17.174Z,38.08
2018-03-26T09:27:45.543Z,32.15
2018-03-26T09:30:13.866Z,36.58
2018-03-26T09:32:42.206Z,54.78
2018-03-26T09:35:10.535Z,48.87
2018-03-26T09:37:38.884Z,47.92
2018-03-26T09:40:07.205Z,44.70
2018-03-26T09:42:35.550Z,39.33
2018-03-26T09:45:03.863Z,38.60
2018-03-26T09:47:32.198Z,35.78
2018-03-26T09:50:00.522Z,35.65
2018-03-26T09:52:28.867Z,41.47
2018-03-26T09:54:57.194Z,46.67
2018-03-26T09:57:25.542Z,54.67
2018-03-26T09:59:53.865Z,54.80
2018-03-26T10:02:22.210Z,51.35
2018-03-26T10:04:50.539Z,44.58
2018-03-26T10:07:18.886Z,44.70
2018-03-26T10:09:47.214Z,42.40
2018-03-26T10:12:15.554Z,33.13
2018-03-26T10:14:43.874Z,30.50
2018-03-26T10:17:12.213Z,28.75
2018-03-26T10:19:40.559Z,27.35
2018-03-26T10:22:08.878Z,27.65
2018-03-26T10:24:37.196Z,24.77
2018-03-26T10:27:05.534Z,25.00
2018-03-26T10:29:33.846Z,23.90
2018-03-26T10:32:02.190Z,27.70
2018-03-26T10:34:30.506Z,22.63
2018-03-26T10:36:58.846Z,20.35
2018-03-26T10:39:27.281Z,19.40
2018-03-26T10:41:55.610Z,19.20
2018-03-26T10:44:24.115Z,19.52
2018-03-26T10:46:52.451Z,19.37
2018-03-26T10:49:20.798Z,19.58
2018-03-26T10:51:49.138Z,19.87
2018-03-26T10:54:17.486Z,19.83
2018-03-26T10:56:46.014Z,17.20
2018-03-26T10:59:14.397Z,32.60
2018-03-26T11:01:42.718Z,31.10
2018-03-26T11:04:11.067Z,26.62
2018-03-26T11:06:39.387Z,22.40
2018-03-26T11:09:07.730Z,16.03
2018-03-26T11:11:36.054Z,18.03
2018-03-26T11:14:04.403Z,18.00
2018-03-26T11:16:32.732Z,17.57
2018-03-26T11:19:01.268Z,18.70
2018-03-26T11:21:29.598Z,15.97
2018-03-26T11:23:57.951Z,15.93
2018-03-26T11:26:26.275Z,14.60
2018-03-26T11:28:54.623Z,15.03
2018-03-26T11:31:23.019Z,16.80
2018-03-26T11:33:51.545Z,16.67
2018-03-26T11:36:19.904Z,15.40
2018-03-26T11:38:48.219Z,15.10
2018-03-26T11:41:16.549Z,15.27
2018-03-26T11:43:44.898Z,14.02
2018-03-26T11:46:14.235Z,19.20
2018-03-26T11:48:42.719Z,17.02
2018-03-26T11:51:11.150Z,16.70
2018-03-26T11:53:39.672Z,14.17
2018-03-26T11:56:08.118Z,14.00
2018-03-26T11:58:37.601Z,19.48
2018-03-26T12:01:05.950Z,31.63
2018-03-26T12:03:34.302Z,18.93
2018-03-26T12:06:02.690Z,22.00
2018-03-26T12:08:31.031Z,20.97
2018-03-26T12:10:59.358Z,15.37
2018-03-26T12:13:27.726Z,31.58
2018-03-26T12:15:56.071Z,33.35
2018-03-26T12:18:24.886Z,33.00
2018-03-26T12:21:02.669Z,51.60
2018-03-26T12:23:42.851Z,34.90
2018-03-26T12:26:12.174Z,33.63
2018-03-26T12:28:52.205Z,36.50
2018-03-26T12:31:20.554Z,24.60
2018-03-26T12:34:00.706Z,21.15
2018-03-26T12:36:30.152Z,19.60
2018-03-26T12:38:58.642Z,18.83
2018-03-26T12:41:27.007Z,17.87
2018-03-26T12:43:55.367Z,13.20
2018-03-26T12:46:36.550Z,12.47
2018-03-26T12:49:04.910Z,13.10
2018-03-26T12:51:45.213Z,17.63
2018-03-26T12:54:13.566Z,13.50
2018-03-26T12:56:41.893Z,11.57
2018-03-26T12:59:10.236Z,14.10
2018-03-26T13:01:50.278Z,19.37
2018-03-26T13:04:18.622Z,20.73
2018-03-26T13:06:47.036Z,35.10
2018-03-26T13:09:15.403Z,36.97
2018-03-26T13:11:43.722Z,35.67
2018-03-26T13:14:12.070Z,26.00
2018-03-26T13:16:40.398Z,30.00
2018-03-26T13:19:08.750Z,27.10
2018-03-26T13:21:37.079Z,48.30
2018-03-26T13:24:05.426Z,32.00
2018-03-26T13:26:34.769Z,24.52
2018-03-26T13:29:03.215Z,21.47
2018-03-26T13:31:31.592Z,22.37
2018-03-26T13:34:00.271Z,23.58
2018-03-26T13:36:28.587Z,26.23
2018-03-26T13:38:56.955Z,40.33
2018-03-26T13:41:25.278Z,44.67
2018-03-26T13:43:53.638Z,55.10
2018-03-26T13:46:21.961Z,46.43
2018-03-26T13:48:50.382Z,37.43
2018-03-26T13:51:18.733Z,40.60
2018-03-26T13:53:48.087Z,33.55
2018-03-26T13:56:16.432Z,25.90
2018-03-26T13:58:44.761Z,21.37
2018-03-26T14:01:13.103Z,21.90
2018-03-26T14:03:41.426Z,29.43
2018-03-26T14:06:10.011Z,25.30
2018-03-26T14:08:50.114Z,19.90
2018-03-26T14:11:30.106Z,16.67
2018-03-26T14:14:10.095Z,17.02
2018-03-26T14:16:51.325Z,20.23
2018-03-26T14:19:20.942Z,20.70
2018-03-26T14:21:49.320Z,15.60
2018-03-26T14:24:18.109Z,20.70
2018-03-26T14:26:47.830Z,19.37
2018-03-26T14:29:16.334Z,30.67
2018-03-26T14:31:44.745Z,26.37
2018-03-26T14:34:13.779Z,20.40
2018-03-26T14:36:42.104Z,17.77
2018-03-26T14:39:10.497Z,21.33
2018-03-26T14:41:39.085Z,20.30
2018-03-26T14:44:07.552Z,17.50
2018-03-26T14:46:36.770Z,19.60
2018-03-26T14:49:05.160Z,17.40
2018-03-26T14:51:33.662Z,16.70
2018-03-26T14:54:02.180Z,15.82
2018-03-26T14:56:31.499Z,17.83
2018-03-26T14:58:59.854Z,17.95
2018-03-26T15:01:28.268Z,16.27
2018-03-26T15:04:01.004Z,16.10
2018-03-26T15:06:30.302Z,16.50
2018-03-26T15:08:58.736Z,16.43
2018-03-26T15:11:27.662Z,19.42
2018-03-26T15:13:56.006Z,24.30
2018-03-26T15:16:24.409Z,20.67
2018-03-26T15:18:52.878Z,17.75
2018-03-26T15:21:21.279Z,17.20
2018-03-26T15:23:49.798Z,16.47
2018-03-26T15:26:19.258Z,15.95
2018-03-26T15:28:47.705Z,17.70
2018-03-26T15:31:16.096Z,16.90
2018-03-26T15:33:44.519Z,19.50
2018-03-26T15:36:12.875Z,17.57
2018-03-26T15:41:21.863Z,17.12
2018-03-26T15:43:50.187Z,18.33
2018-03-26T15:46:18.542Z,19.47
2018-03-26T15:48:46.890Z,18.50
2018-03-26T15:51:15.278Z,19.62
2018-03-26T15:53:43.590Z,17.77
2018-03-26T15:56:12.980Z,17.67
2018-03-26T15:58:46.174Z,17.37
2018-03-26T16:01:19.670Z,17.83
2018-03-26T16:03:48.062Z,15.57
2018-03-26T16:06:16.690Z,15.43
2018-03-26T16:08:45.039Z,15.80
2018-03-26T16:11:13.485Z,16.67
2018-03-26T16:13:42.081Z,17.02
2018-03-26T16:16:11.166Z,15.80
2018-03-26T16:18:39.499Z,16.07
2018-03-26T16:21:07.838Z,15.67
2018-03-26T16:23:36.158Z,15.20
2018-03-26T16:26:04.503Z,13.80
2018-03-26T16:28:32.854Z,14.13
2018-03-26T16:31:01.194Z,14.73
2018-03-26T16:33:29.613Z,16.45
2018-03-26T16:35:57.971Z,16.93
2018-03-26T16:38:26.304Z,15.38
2018-03-26T16:40:54.684Z,15.30
2018-03-26T16:43:23.042Z,15.80
2018-03-26T16:45:51.394Z,15.97
2018-03-26T16:48:19.798Z,16.10
2018-03-26T16:50:48.153Z,14.80
2018-03-26T16:53:16.952Z,13.37
2018-03-26T16:55:45.286Z,14.35
2018-03-26T16:58:13.626Z,14.67
2018-03-26T17:00:41.976Z,14.02
2018-03-26T17:03:10.970Z,13.55
2018-03-26T17:05:39.316Z,13.33
2018-03-26T17:08:07.678Z,13.53
2018-03-26T17:10:36.010Z,13.23
2018-03-26T17:13:04.379Z,15.83
2018-03-26T17:15:32.874Z,16.83
2018-03-26T17:18:01.246Z,20.13
2018-03-26T17:20:29.618Z,18.45
2018-03-26T17:22:57.970Z,14.65
2018-03-26T17:25:27.217Z,17.05
2018-03-26T17:27:55.621Z,16.30
2018-03-26T17:30:23.978Z,16.10
2018-03-26T17:32:52.410Z,17.63
2018-03-26T17:35:21.646Z,14.50
2018-03-26T17:37:50.105Z,17.10
2018-03-26T17:40:18.461Z,18.60
2018-03-26T17:42:46.903Z,16.60
2018-03-26T17:45:15.362Z,14.35
2018-03-26T17:47:43.761Z,15.27
2018-03-26T17:50:12.166Z,12.13
2018-03-26T17:52:40.502Z,12.40
2018-03-26T17:55:08.826Z,10.70
2018-03-26T17:57:37.490Z,12.57
2018-03-26T18:00:05.996Z,12.97
2018-03-26T18:02:34.423Z,15.57
2018-03-26T18:05:02.774Z,13.50
2018-03-26T18:07:32.125Z,13.55
2018-03-26T18:10:00.623Z,12.90
2018-03-26T18:12:28.949Z,13.30
2018-03-26T18:14:57.309Z,13.32
2018-03-26T18:17:25.672Z,13.53
2018-03-26T18:19:54.110Z,13.07
2018-03-26T18:22:22.496Z,14.00
2018-03-26T18:24:50.851Z,12.77
2018-03-26T18:27:20.186Z,12.70
2018-03-26T18:29:48.541Z,13.43
2018-03-26T18:32:17.039Z,14.17
2018-03-26T18:34:45.517Z,14.77
2018-03-26T18:37:14.819Z,12.50
2018-03-26T18:39:43.141Z,12.57
2018-03-26T18:42:11.596Z,13.07
2018-03-26T18:44:39.919Z,13.32
2018-03-26T18:47:08.343Z,13.83
2018-03-26T18:49:36.711Z,14.80
2018-03-26T18:52:05.054Z,14.65
2018-03-26T18:54:33.451Z,14.10
2018-03-26T18:57:01.898Z,14.87
2018-03-26T18:59:30.272Z,15.88
2018-03-26T19:01:58.667Z,16.55
2018-03-26T19:04:27.019Z,15.40
2018-03-26T19:06:56.460Z,16.27
2018-03-26T19:09:24.819Z,16.20
2018-03-26T19:11:53.176Z,14.40
2018-03-26T19:14:21.541Z,13.47
2018-03-26T19:16:49.895Z,15.33
2018-03-26T19:19:18.260Z,14.27
2018-03-26T19:21:46.574Z,14.67
2018-03-26T19:24:15.188Z,15.10
2018-03-26T19:26:43.683Z,14.70
2018-03-26T19:29:12.208Z,13.75
2018-03-26T19:31:45.582Z,13.97
2018-03-26T19:34:14.074Z,14.90
2018-03-26T19:36:43.394Z,14.23
2018-03-26T19:39:11.789Z,13.70
2018-03-26T19:41:40.215Z,13.87
2018-03-26T19:44:09.133Z,13.93
2018-03-26T19:46:38.598Z,12.40
2018-03-26T19:49:07.064Z,13.53
2018-03-26T19:51:36.290Z,14.33
2018-03-26T19:54:04.877Z,12.55
2018-03-26T19:56:33.210Z,16.43
2018-03-26T19:59:01.557Z,14.10
2018-03-26T20:01:30.014Z,14.50
2018-03-26T20:03:58.409Z,14.67
2018-03-26T20:06:26.826Z,14.73
2018-03-26T20:08:55.226Z,14.43
2018-03-26T20:11:23.650Z,14.13
2018-03-26T20:13:52.029Z,14.68
2018-03-26T20:16:20.561Z,14.40
2018-03-26T20:18:49.008Z,14.18
2018-03-26T20:21:17.551Z,15.80
2018-03-26T20:23:45.910Z,16.10
2018-03-26T20:26:14.261Z,17.60
2018-03-26T20:28:42.599Z,15.35
2018-03-26T20:31:10.922Z,16.37
2018-03-26T20:33:39.291Z,17.60
2018-03-26T20:36:07.628Z,16.00
2018-03-26T20:38:36.106Z,16.60
2018-03-26T20:41:04.425Z,16.23
2018-03-26T20:43:32.829Z,15.73
2018-03-26T20:46:01.158Z,14.80
2018-03-26T20:48:29.510Z,16.08
2018-03-26T20:50:57.838Z,15.30
2018-03-26T20:53:26.182Z,15.20
2018-03-26T20:55:54.523Z,14.47
2018-03-26T20:58:22.865Z,17.50
2018-03-26T21:00:51.190Z,16.70
2018-03-26T21:03:19.550Z,14.70
2018-03-26T21:05:47.869Z,15.40
2018-03-26T21:08:16.222Z,14.63
2018-03-26T21:10:44.549Z,15.90
2018-03-26T21:13:12.905Z,16.57
2018-03-26T21:15:41.234Z,16.90
2018-03-26T21:18:09.576Z,16.73
2018-03-26T21:20:37.909Z,15.70
2018-03-26T21:23:06.270Z,15.40
2018-03-26T21:25:34.595Z,16.37
2018-03-26T21:28:02.929Z,18.30
2018-03-26T21:30:31.270Z,15.30
2018-03-26T21:32:59.590Z,15.48
2018-03-26T21:35:28.331Z,15.53
2018-03-26T21:37:56.969Z,17.10
2018-03-26T21:40:25.317Z,14.87
2018-03-26T21:42:53.649Z,15.67
2018-03-26T21:45:22.008Z,16.47
2018-03-26T21:47:50.336Z,16.33
2018-03-26T21:50:18.684Z,16.65
2018-03-26T21:52:47.016Z,15.77
2018-03-26T21:55:15.365Z,14.90
2018-03-26T21:57:43.699Z,17.40
2018-03-26T22:00:18.002Z,16.20
2018-03-26T22:02:46.337Z,17.20
2018-03-26T22:05:14.717Z,15.70
2018-03-26T22:07:43.047Z,16.40
2018-03-26T22:10:11.404Z,13.95
2018-03-26T22:12:39.727Z,15.80
2018-03-26T22:15:08.092Z,14.30
2018-03-26T22:17:37.464Z,14.90
2018-03-26T22:20:05.872Z,16.00
2018-03-26T22:22:34.156Z,14.50
2018-03-26T22:25:02.518Z,14.43
2018-03-26T22:27:30.929Z,16.30
2018-03-26T22:29:59.275Z,15.18
2018-03-26T22:32:27.598Z,17.00
2018-03-26T22:34:55.987Z,15.43
2018-03-26T22:37:28.053Z,15.80
2018-03-26T22:39:57.075Z,17.50
2018-03-26T22:42:25.406Z,16.62
2018-03-26T22:44:53.838Z,15.80
2018-03-26T22:47:22.235Z,18.57
2018-03-26T22:49:50.591Z,18.55
2018-03-26T22:52:18.910Z,19.10
2018-03-26T22:54:47.259Z,21.07
2018-03-26T22:57:15.586Z,19.53
2018-03-26T22:59:43.936Z,21.37
2018-03-26T23:02:12.266Z,20.37
2018-03-26T23:04:40.616Z,19.93
2018-03-26T23:07:08.945Z,19.73
2018-03-26T23:09:37.291Z,20.00
2018-03-26T23:12:05.627Z,19.67
2018-03-26T23:14:33.977Z,19.80
2018-03-26T23:17:02.318Z,19.80
2018-03-26T23:19:31.354Z,22.02
2018-03-26T23:21:59.679Z,19.87
2018-03-26T23:24:28.031Z,21.17
2018-03-26T23:26:56.358Z,20.40
2018-03-26T23:29:24.711Z,20.83
2018-03-26T23:31:53.038Z,21.33
2018-03-26T23:34:21.385Z,20.85
2018-03-26T23:36:49.718Z,21.00
2018-03-26T23:39:18.046Z,21.58
2018-03-26T23:41:46.391Z,21.67
2018-03-26T23:44:14.714Z,21.87
2018-03-26T23:46:43.054Z,23.30
2018-03-26T23:49:11.365Z,20.75
2018-03-26T23:51:39.705Z,20.45
2018-03-26T23:54:08.030Z,20.95
2018-03-26T23:56:36.370Z,19.52
2018-03-26T23:59:04.700Z,19.95
